Time;durP1;ratioP1;P1;durP2;ratioP2;P2;SDS_P1;SDS_P2;PMS_P1;PMS_P2;Temp;Humidity;BMP_temperature;BMP_pressure;BME280_temperature;BME280_humidity;BME280_pressure;Samples;Min_cycle;Max_cycle;Signal;HPM_P1;HPM_P2
2023/09/16 00:01:08;;;;;;;;;;;;;;;29.54;76.62;100884.06;4920601;28;65576;-37
2023/09/16 00:03:38;;;;;;;;;;;;;;;29.58;76.50;100888.00;4916020;28;69800;-39
2023/09/16 00:06:09;;;;;;;;;;;;;;;29.60;77.52;100884.06;4922620;28;65968;-37
2023/09/16 00:08:41;;;;;;;;;;;;;;;29.67;77.99;100880.53;4915415;28;69876;-38
2023/09/16 00:11:11;;;;;;;;;;;;;;;29.68;77.85;100882.22;4920592;28;65750;-41
2023/09/16 00:13:43;;;;;;;;;;;;;;;29.69;77.65;100890.09;4917321;28;69768;-37
2023/09/16 00:16:15;;;;;;;;;;;;;;;29.70;77.29;100891.78;4915885;28;66804;-39
2023/09/16 00:18:46;;;;;;;;;;;;;;;29.72;77.15;100896.94;4900756;28;69844;-38
2023/09/16 00:21:16;;;;;;;;;;;;;;;29.73;77.49;100901.34;4915930;28;66582;-38
2023/09/16 00:23:45;;;;;;;;;;;;;;;29.74;77.76;100902.97;4920362;28;70257;-39
2023/09/16 00:26:15;;;;;;;;;;;;;;;29.76;77.63;100901.72;4930943;28;65731;-38
2023/09/16 00:28:48;;;;;;;;;;;;;;;29.80;78.67;100908.34;4906932;28;70729;-37
2023/09/16 00:31:18;;;;;;;;;;;;;;;29.78;76.10;100918.56;4916840;28;66274;-38
2023/09/16 00:33:49;;;;;;;;;;;;;;;29.77;74.64;100925.00;4921128;28;69715;-38
2023/09/16 00:36:18;;;;;;;;;;;;;;;29.78;74.26;100932.09;4898955;28;65006;-38
2023/09/16 00:38:48;;;;;;;;;;;;;;;29.81;73.56;100931.66;4919608;28;70538;-38
2023/09/16 00:41:18;;;;;;;;;;;;;;;29.82;73.21;100927.91;4902256;28;67110;-37
2023/09/16 00:43:48;;;;;;;;;;;;;;;29.88;73.41;100938.94;4899879;28;70270;-37
2023/09/16 00:46:17;;;;;;;;;;;;;;;29.91;73.47;100935.78;4905501;28;66621;-37
2023/09/16 00:48:47;;;;;;;;;;;;;;;29.66;72.96;100897.81;4919297;28;70010;-38
2023/09/16 00:51:17;;;;;;;;;;;;;;;29.97;72.54;100945.75;4917052;28;65507;-38
2023/09/16 00:53:47;;;;;;;;;;;;;;;30.00;72.70;100951.56;4893928;28;69866;-38
2023/09/16 00:56:17;;;;;;;;;;;;;;;30.03;72.55;100944.91;4898873;28;67014;-38
2023/09/16 00:58:46;;;;;;;;;;;;;;;30.05;72.91;100934.72;4913915;28;70710;-36
2023/09/16 01:01:17;;;;;;;;;;;;;;;30.16;76.95;100934.03;4914511;28;66371;-37
2023/09/16 01:03:46;;;;;;;;;;;;;;;30.18;77.18;100934.66;4916527;28;69241;-37
2023/09/16 01:06:16;;;;;;;;;;;;;;;30.19;77.86;100941.72;4914108;28;66845;-38
2023/09/16 01:08:46;;;;;;;;;;;;;;;30.19;77.76;100946.31;4934771;28;70332;-37
2023/09/16 01:11:16;;;;;;;;;;;;;;;30.19;77.25;100944.44;4920502;28;67050;-37
2023/09/16 01:13:47;;;;;;;;;;;;;;;30.17;77.69;100941.13;4920588;28;70125;-38
2023/09/16 01:16:16;;;;;;;;;;;;;;;30.21;78.18;100942.34;4924412;28;66695;-38
2023/09/16 01:18:50;;;;;;;;;;;;;;;30.22;77.61;100949.44;4903264;28;69869;-38
2023/09/16 01:21:22;;;;;;;;;;;;;;;30.23;77.22;100951.13;4907221;28;66043;-39
2023/09/16 01:24:11;;;;;;;;;;;;;;;30.23;77.28;100955.72;4915854;28;70441;-38
2023/09/16 01:26:40;;;;;;;;;;;;;;;30.23;77.44;100959.25;4920736;28;67056;-37
2023/09/16 01:29:11;;;;;;;;;;;;;;;30.25;76.86;100954.41;4912750;28;70437;-39
2023/09/16 01:31:42;;;;;;;;;;;;;;;30.25;76.48;100957.13;4904757;28;66763;-38
2023/09/16 01:34:17;;;;;;;;;;;;;;;30.27;76.14;100952.34;4905160;28;70768;-37
2023/09/16 01:36:48;;;;;;;;;;;;;;;30.28;76.66;100959.44;4919197;28;66643;-37
2023/09/16 01:39:19;;;;;;;;;;;;;;;30.30;76.24;100961.09;4910635;28;70312;-37
2023/09/16 01:41:50;;;;;;;;;;;;;;;30.34;75.97;100954.19;4919038;28;66888;-39
2023/09/16 01:44:21;;;;;;;;;;;;;;;30.35;75.89;100958.56;4889362;28;70117;-37
2023/09/16 01:46:54;;;;;;;;;;;;;;;30.38;75.48;100953.53;4919676;28;66005;-38
2023/09/16 01:49:24;;;;;;;;;;;;;;;30.41;75.06;100941.47;4898198;29;70885;-45
2023/09/16 01:51:53;;;;;;;;;;;;;;;30.43;75.20;100939.38;4915746;28;67408;-39
2023/09/16 01:54:23;;;;;;;;;;;;;;;30.45;75.09;100931.84;4917367;28;70756;-39
2023/09/16 01:56:52;;;;;;;;;;;;;;;30.43;75.51;100928.56;4920021;28;66317;-38
2023/09/16 01:59:22;;;;;;;;;;;;;;;30.44;74.38;100924.78;4895118;28;70387;-40
2023/09/16 02:01:51;;;;;;;;;;;;;;;30.50;74.23;100923.91;4924710;28;66450;-38
2023/09/16 02:04:21;;;;;;;;;;;;;;;30.54;73.19;100925.16;4904974;28;70758;-39
2023/09/16 02:06:52;;;;;;;;;;;;;;;30.58;73.15;100926.38;4911743;28;65790;-38
2023/09/16 02:09:21;;;;;;;;;;;;;;;30.63;72.61;100925.72;4912639;28;70498;-38
2023/09/16 02:11:51;;;;;;;;;;;;;;;30.66;72.56;100928.00;4896339;28;66570;-38
2023/09/16 02:14:21;;;;;;;;;;;;;;;30.70;72.81;100935.47;4911615;28;70316;-39
2023/09/16 02:16:51;;;;;;;;;;;;;;;30.73;72.26;100929.63;4899888;28;66072;-40
2023/09/16 02:19:23;;;;;;;;;;;;;;;30.77;72.17;100940.00;4899683;28;70874;-38
2023/09/16 02:21:52;;;;;;;;;;;;;;;30.81;72.23;100946.66;4927137;28;66139;-39
2023/09/16 02:24:23;;;;;;;;;;;;;;;30.83;71.61;100944.59;4914729;28;70637;-38
2023/09/16 02:26:52;;;;;;;;;;;;;;;30.88;71.91;100936.63;4927295;28;65815;-38
2023/09/16 02:29:22;;;;;;;;;;;;;;;30.91;71.59;100936.19;4919027;28;70060;-38
2023/09/16 02:31:52;;;;;;;;;;;;;;;30.94;71.47;100935.75;4922179;28;66692;-38
2023/09/16 02:34:21;;;;;;;;;;;;;;;30.97;71.20;100929.06;4916488;28;70531;-40
2023/09/16 02:36:51;;;;;;;;;;;;;;;30.99;71.45;100930.50;4923171;28;65781;-38
2023/09/16 02:39:21;;;;;;;;;;;;;;;31.02;71.30;100926.53;4905743;28;69958;-39
2023/09/16 02:41:50;;;;;;;;;;;;;;;31.04;70.90;100936.09;4913536;28;66642;-38
2023/09/16 02:44:20;;;;;;;;;;;;;;;31.07;70.87;100930.25;4907656;28;70623;-41
2023/09/16 02:46:49;;;;;;;;;;;;;;;31.10;70.83;100935.22;4896077;28;66395;-39
2023/09/16 02:49:20;;;;;;;;;;;;;;;31.12;70.54;100927.72;4910480;28;69431;-38
2023/09/16 02:51:49;;;;;;;;;;;;;;;31.16;70.40;100928.09;4917430;28;65874;-39
2023/09/16 02:54:19;;;;;;;;;;;;;;;31.12;71.65;100937.69;4914407;28;70344;-39
2023/09/16 02:56:50;;;;;;;;;;;;;;;31.05;71.81;100943.16;4909748;28;66931;-39
2023/09/16 02:59:20;;;;;;;;;;;;;;;31.03;72.16;100937.13;4904809;28;70010;-38
2023/09/16 03:01:50;;;;;;;;;;;;;;;31.04;72.19;100935.28;4907324;28;66615;-38
2023/09/16 03:04:20;;;;;;;;;;;;;;;31.03;72.25;100929.00;4913948;28;70357;-38
2023/09/16 03:06:50;;;;;;;;;;;;;;;31.06;72.26;100928.56;4911609;28;65987;-38
2023/09/16 03:09:19;;;;;;;;;;;;;;;31.08;72.27;100926.47;4920831;28;69968;-39
2023/09/16 03:11:49;;;;;;;;;;;;;;;31.09;72.00;100922.72;4908868;28;65601;-38
2023/09/16 03:14:19;;;;;;;;;;;;;;;31.12;72.49;100927.72;4908702;28;69601;-37
2023/09/16 03:16:49;;;;;;;;;;;;;;;31.16;72.41;100934.31;4898049;28;66047;-37
2023/09/16 03:19:18;;;;;;;;;;;;;;;31.19;72.25;100929.53;4916428;28;70055;-38
2023/09/16 03:21:51;;;;;;;;;;;;;;;31.21;72.77;100924.72;4891610;28;67042;-39
2023/09/16 03:24:21;;;;;;;;;;;;;;;31.22;72.72;100921.78;4906254;28;69868;-38
2023/09/16 03:26:51;;;;;;;;;;;;;;;31.26;72.48;100922.16;4912562;28;67064;-37
2023/09/16 03:29:21;;;;;;;;;;;;;;;31.27;72.25;100923.84;4899616;28;70841;-38
2023/09/16 03:31:50;;;;;;;;;;;;;;;31.27;72.28;100919.22;4903030;28;65855;-38
2023/09/16 03:34:21;;;;;;;;;;;;;;;31.29;72.18;100921.72;4920174;28;70699;-41
2023/09/16 03:36:51;;;;;;;;;;;;;;;31.36;71.96;100922.50;4921871;28;66923;-40
2023/09/16 03:39:21;;;;;;;;;;;;;;;31.36;72.06;100917.09;4900493;28;70208;-38
2023/09/16 03:41:51;;;;;;;;;;;;;;;31.39;72.04;100911.22;4903279;28;65856;-38
2023/09/16 03:44:21;;;;;;;;;;;;;;;31.39;71.93;100911.22;4889516;28;69200;-38
2023/09/16 03:46:51;;;;;;;;;;;;;;;31.41;71.79;100908.31;4916639;28;66631;-39
2023/09/16 03:49:30;;;;;;;;;;;;;;;31.43;72.06;100912.44;5069411;28;43613;-40
2023/09/16 03:52:00;;;;;;;;;;;;;;;31.42;72.33;100905.34;5052503;28;70554;-38
2023/09/16 03:54:29;;;;;;;;;;;;;;;31.44;72.45;100908.69;5048880;28;66289;-39
2023/09/16 03:56:59;;;;;;;;;;;;;;;31.46;72.11;100897.63;5031980;28;69988;-40
2023/09/16 03:59:31;;;;;;;;;;;;;;;31.47;71.87;100894.69;5034509;28;65439;-41
2023/09/16 04:02:01;;;;;;;;;;;;;;;31.51;71.99;100897.75;5051379;28;69354;-39
2023/09/16 04:04:31;;;;;;;;;;;;;;;31.51;71.92;100882.34;5051956;28;66542;-39
2023/09/16 04:07:00;;;;;;;;;;;;;;;31.37;71.91;100853.69;5031552;28;70426;-39
2023/09/16 04:09:30;;;;;;;;;;;;;;;31.57;71.87;100886.03;5043425;28;66597;-39
2023/09/16 04:12:00;;;;;;;;;;;;;;;31.58;71.39;100885.78;5027976;28;70903;-40
2023/09/16 04:14:30;;;;;;;;;;;;;;;31.58;71.69;100872.25;4998135;28;66325;-39
2023/09/16 04:16:59;;;;;;;;;;;;;;;31.58;71.46;100877.66;5012230;28;70083;-38
2023/09/16 04:19:29;;;;;;;;;;;;;;;31.63;71.46;100868.03;5016212;28;65537;-39
2023/09/16 04:21:59;;;;;;;;;;;;;;;31.68;71.20;100862.75;5009812;28;70301;-41
2023/09/16 04:24:29;;;;;;;;;;;;;;;31.68;71.54;100870.88;5016668;28;66387;-40
2023/09/16 04:26:59;;;;;;;;;;;;;;;31.68;71.14;100870.88;5010363;28;70602;-41
2023/09/16 04:29:31;;;;;;;;;;;;;;;31.69;71.39;100867.13;5012749;28;65389;-40
2023/09/16 04:32:01;;;;;;;;;;;;;;;31.73;71.29;100868.31;5025025;28;69813;-39
2023/09/16 04:34:35;;;;;;;;;;;;;;;31.70;71.31;100874.19;5025851;28;65993;-38
2023/09/16 04:37:08;;;;;;;;;;;;;;;31.72;71.55;100872.09;5010657;28;70479;-39
2023/09/16 04:39:38;;;;;;;;;;;;;;;31.71;71.41;100865.03;5015150;28;66884;-39
2023/09/16 04:42:07;;;;;;;;;;;;;;;31.73;71.19;100857.47;5009436;28;70511;-39
2023/09/16 04:44:38;;;;;;;;;;;;;;;31.73;71.19;100863.75;5006140;28;66088;-40
2023/09/16 04:47:10;;;;;;;;;;;;;;;31.75;70.95;100849.94;5020240;28;68718;-40
2023/09/16 04:49:40;;;;;;;;;;;;;;;31.75;71.06;100853.47;5014456;28;66673;-39
2023/09/16 04:52:10;;;;;;;;;;;;;;;31.80;70.90;100863.66;5015343;28;70539;-40
2023/09/16 04:54:40;;;;;;;;;;;;;;;31.80;70.57;100847.38;5002066;28;66214;-39
2023/09/16 04:57:10;;;;;;;;;;;;;;;31.81;70.53;100839.00;5036383;28;70356;-40
2023/09/16 04:59:39;;;;;;;;;;;;;;;31.81;70.19;100840.91;5024808;28;65703;-38
2023/09/16 05:02:09;;;;;;;;;;;;;;;31.86;70.08;100838.31;4991021;28;70081;-40
2023/09/16 05:04:38;;;;;;;;;;;;;;;31.87;70.09;100850.00;5018952;28;67015;-40
2023/09/16 05:07:10;;;;;;;;;;;;;;;31.87;69.56;100864.38;5016974;28;70544;-40
2023/09/16 05:09:39;;;;;;;;;;;;;;;31.91;69.81;100862.06;5003620;28;66012;-40
2023/09/16 05:12:09;;;;;;;;;;;;;;;31.90;69.86;100852.25;5010180;28;69338;-39
2023/09/16 05:14:39;;;;;;;;;;;;;;;31.87;70.06;100841.88;5015159;28;66795;-39
2023/09/16 05:17:08;;;;;;;;;;;;;;;31.94;69.72;100831.81;5014611;28;70500;-39
2023/09/16 05:19:38;;;;;;;;;;;;;;;31.97;69.94;100832.16;5003304;28;66548;-41
2023/09/16 05:22:09;;;;;;;;;;;;;;;32.00;69.79;100820.84;4983400;28;70432;-38
2023/09/16 05:24:38;;;;;;;;;;;;;;;32.02;69.84;100807.88;5002874;28;65687;-41
2023/09/16 05:27:08;;;;;;;;;;;;;;;32.05;69.75;100806.59;5003111;28;69243;-42
2023/09/16 05:29:38;;;;;;;;;;;;;;;32.04;69.75;100789.50;5001292;28;66803;-40
2023/09/16 05:32:09;;;;;;;;;;;;;;;32.02;69.97;100788.06;4994282;28;69519;-41
2023/09/16 05:34:39;;;;;;;;;;;;;;;32.01;70.09;100784.53;4988046;28;65046;-41
2023/09/16 05:37:08;;;;;;;;;;;;;;;32.02;70.09;100780.75;4989234;28;70177;-40
2023/09/16 05:39:39;;;;;;;;;;;;;;;32.09;70.16;100788.78;5026368;28;66375;-41
2023/09/16 05:42:08;;;;;;;;;;;;;;;32.11;70.16;100783.16;5008417;28;69546;-40
2023/09/16 05:44:39;;;;;;;;;;;;;;;32.16;69.97;100780.56;5011429;28;66744;-40
2023/09/16 05:47:09;;;;;;;;;;;;;;;32.20;69.88;100776.31;5035402;28;69493;-40
2023/09/16 05:49:39;;;;;;;;;;;;;;;32.20;69.61;100777.16;5003431;28;66840;-39
2023/09/16 05:52:10;;;;;;;;;;;;;;;32.21;68.99;100775.28;5013337;28;71021;-39
2023/09/16 05:54:40;;;;;;;;;;;;;;;32.24;68.66;100780.25;5011598;28;66121;-42
2023/09/16 05:57:10;;;;;;;;;;;;;;;32.25;67.94;100779.16;5017381;28;69469;-44
2023/09/16 05:59:39;;;;;;;;;;;;;;;32.26;67.60;100786.25;4988146;28;66252;-39
2023/09/16 06:02:10;;;;;;;;;;;;;;;32.25;67.23;100779.16;4998820;28;69494;-41
2023/09/16 06:04:39;;;;;;;;;;;;;;;32.25;66.98;100773.75;4993227;28;65781;-39
2023/09/16 06:07:09;;;;;;;;;;;;;;;32.26;67.15;100769.97;5009750;28;69583;-40
2023/09/16 06:09:39;;;;;;;;;;;;;;;32.26;66.79;100761.81;5014466;28;66362;-40
2023/09/16 06:12:09;;;;;;;;;;;;;;;32.27;66.47;100760.78;5015332;28;70520;-39
2023/09/16 06:14:39;;;;;;;;;;;;;;;32.28;66.40;100767.84;5020389;28;66756;-39
2023/09/16 06:17:08;;;;;;;;;;;;;;;32.30;66.32;100764.91;5011737;28;70263;-42
2023/09/16 06:19:39;;;;;;;;;;;;;;;32.30;66.14;100760.31;5013373;28;65570;-40
2023/09/16 06:22:10;;;;;;;;;;;;;;;32.31;66.49;100756.53;5011617;28;69009;-38
2023/09/16 06:24:40;;;;;;;;;;;;;;;32.32;66.37;100747.34;5002412;28;65551;-40
2023/09/16 06:27:11;;;;;;;;;;;;;;;32.34;66.30;100745.19;5006968;28;69993;-40
2023/09/16 06:29:41;;;;;;;;;;;;;;;32.34;66.16;100734.34;5001241;28;66389;-40
2023/09/16 06:32:11;;;;;;;;;;;;;;;32.35;65.65;100738.72;5020646;28;70415;-40
2023/09/16 06:34:40;;;;;;;;;;;;;;;32.36;65.72;100734.94;4991659;28;66406;-41
2023/09/16 06:37:10;;;;;;;;;;;;;;;32.38;65.61;100726.56;5020323;28;69634;-40
2023/09/16 06:39:40;;;;;;;;;;;;;;;32.38;65.36;100719.25;5005647;28;65630;-39
2023/09/16 06:42:10;;;;;;;;;;;;;;;32.39;64.90;100707.31;5011314;28;70848;-40
2023/09/16 06:44:42;;;;;;;;;;;;;;;32.39;64.71;100701.88;5003013;28;66387;-40
2023/09/16 06:47:12;;;;;;;;;;;;;;;32.39;64.44;100712.75;5009255;28;70000;-39
2023/09/16 06:49:42;;;;;;;;;;;;;;;32.40;64.28;100721.72;5016519;28;66941;-39
2023/09/16 06:52:12;;;;;;;;;;;;;;;32.40;64.13;100717.13;5000870;28;69182;-40
2023/09/16 06:54:42;;;;;;;;;;;;;;;32.40;64.24;100717.13;5024014;28;66685;-39
2023/09/16 06:57:11;;;;;;;;;;;;;;;32.38;63.93;100711.09;5015933;28;70552;-40
2023/09/16 06:59:41;;;;;;;;;;;;;;;32.39;64.07;100703.78;5018567;28;66110;-42
2023/09/16 07:02:11;;;;;;;;;;;;;;;32.39;64.00;100693.75;5018579;28;70020;-39
2023/09/16 07:04:40;;;;;;;;;;;;;;;32.39;63.91;100684.78;5005078;28;66385;-39
2023/09/16 07:07:10;;;;;;;;;;;;;;;32.38;63.55;100675.81;5020601;28;69683;-42
2023/09/16 07:09:40;;;;;;;;;;;;;;;32.37;63.37;100674.13;5012841;28;66256;-39
2023/09/16 07:12:09;;;;;;;;;;;;;;;32.39;63.33;100673.91;5000100;28;70522;-40
2023/09/16 07:14:39;;;;;;;;;;;;;;;32.38;63.20;100664.94;5026799;28;65644;-40
2023/09/16 07:17:08;;;;;;;;;;;;;;;32.39;63.23;100671.22;5018993;28;70355;-40
2023/09/16 07:19:38;;;;;;;;;;;;;;;32.38;63.33;100670.38;5001159;28;67152;-39
2023/09/16 07:22:08;;;;;;;;;;;;;;;32.37;63.20;100666.00;5016103;28;70231;-39
2023/09/16 07:24:38;;;;;;;;;;;;;;;32.37;63.31;100666.00;5003844;28;64678;-39
2023/09/16 07:27:08;;;;;;;;;;;;;;;32.37;63.22;100660.56;5000593;28;70215;-40
2023/09/16 07:29:37;;;;;;;;;;;;;;;32.36;63.33;100656.22;5021799;28;67003;-40
2023/09/16 07:32:07;;;;;;;;;;;;;;;32.35;63.17;100638.28;5015780;28;70159;-40
2023/09/16 07:34:36;;;;;;;;;;;;;;;32.36;63.34;100639.94;5018077;28;65378;-41
2023/09/16 07:37:06;;;;;;;;;;;;;;;32.34;62.86;100636.63;5021985;28;69933;-43
2023/09/16 07:39:36;;;;;;;;;;;;;;;32.34;63.21;100638.50;5007026;28;66441;-40
2023/09/16 07:42:05;;;;;;;;;;;;;;;32.33;63.13;100632.25;5017389;28;69304;-40
2023/09/16 07:44:35;;;;;;;;;;;;;;;32.31;63.03;100625.41;5014945;28;65256;-40
2023/09/16 07:47:05;;;;;;;;;;;;;;;32.29;62.77;100628.38;5026675;28;70827;-40
2023/09/16 07:49:35;;;;;;;;;;;;;;;32.28;63.11;100621.28;5002132;28;65646;-40
2023/09/16 07:52:05;;;;;;;;;;;;;;;32.27;63.25;100625.06;5024074;28;70264;-41
2023/09/16 07:54:34;;;;;;;;;;;;;;;32.25;63.16;100621.75;5014250;28;66312;-39
2023/09/16 07:57:04;;;;;;;;;;;;;;;32.23;62.81;100618.44;5025282;28;69445;-41
2023/09/16 07:59:33;;;;;;;;;;;;;;;32.22;62.94;100623.03;5017174;28;65688;-40
2023/09/16 08:02:06;;;;;;;;;;;;;;;32.22;63.47;100622.22;5017926;28;69398;-41
2023/09/16 08:04:35;;;;;;;;;;;;;;;32.21;63.96;100631.44;5014253;28;67182;-40
2023/09/16 08:07:05;;;;;;;;;;;;;;;32.21;64.16;100626.00;5016601;28;70328;-43
2023/09/16 08:09:35;;;;;;;;;;;;;;;32.09;62.44;100636.00;5015658;28;66509;-41
2023/09/16 08:12:05;;;;;;;;;;;;;;;31.90;63.85;100637.94;4981582;28;70140;-40
2023/09/16 08:14:34;;;;;;;;;;;;;;;31.77;64.83;100630.88;5013556;28;66668;-39
2023/09/16 08:17:04;;;;;;;;;;;;;;;31.70;65.57;100622.00;5020977;28;69441;-41
2023/09/16 08:19:33;;;;;;;;;;;;;;;31.63;66.65;100619.41;5009965;28;66473;-42
2023/09/16 08:22:03;;;;;;;;;;;;;;;31.60;67.44;100615.25;4999721;28;69855;-41
2023/09/16 08:24:34;;;;;;;;;;;;;;;31.56;67.65;100630.31;5010094;28;66786;-39
2023/09/16 08:27:04;;;;;;;;;;;;;;;31.54;68.03;100637.06;5020420;28;69663;-39
2023/09/16 08:29:34;;;;;;;;;;;;;;;31.50;68.13;100636.69;5020168;28;66013;-40
2023/09/16 08:32:03;;;;;;;;;;;;;;;31.47;68.82;100642.56;5007645;28;70283;-39
2023/09/16 08:34:33;;;;;;;;;;;;;;;31.47;69.39;100647.16;5024997;28;66951;-38
2023/09/16 08:37:03;;;;;;;;;;;;;;;31.46;70.01;100645.53;5014328;28;70265;-39
2023/09/16 08:39:36;;;;;;;;;;;;;;;31.46;70.01;100656.38;5023175;28;66372;-38
2023/09/16 08:42:11;;;;;;;;;;;;;;;31.44;70.27;100653.88;5019852;28;70768;-39
2023/09/16 08:44:48;;;;;;;;;;;;;;;31.44;70.59;100653.88;5021496;28;66249;-40
2023/09/16 08:47:28;;;;;;;;;;;;;;;31.44;70.71;100653.88;5020379;28;69340;-38
2023/09/16 08:50:06;;;;;;;;;;;;;;;31.41;70.96;100656.22;5017466;28;67534;-37
2023/09/16 08:52:46;;;;;;;;;;;;;;;31.40;71.06;100668.94;5007297;28;70528;-40
2023/09/16 08:55:16;;;;;;;;;;;;;;;31.41;71.17;100673.31;5022131;28;65546;-39
2023/09/16 08:57:56;;;;;;;;;;;;;;;31.43;71.26;100670.38;5022250;28;70428;-39
2023/09/16 09:00:26;;;;;;;;;;;;;;;31.41;71.47;100665.16;4999159;28;66341;-39
2023/09/16 09:02:55;;;;;;;;;;;;;;;31.39;71.51;100672.69;5025156;28;69315;-40
2023/09/16 09:05:26;;;;;;;;;;;;;;;31.40;71.73;100674.38;4995827;28;65554;-41
2023/09/16 09:07:58;;;;;;;;;;;;;;;31.40;71.99;100668.94;5022686;28;69509;-39
2023/09/16 09:10:28;;;;;;;;;;;;;;;31.38;72.12;100671.88;5017855;28;66550;-39
2023/09/16 09:12:59;;;;;;;;;;;;;;;31.40;71.92;100674.38;5013792;28;70834;-38
2023/09/16 09:15:29;;;;;;;;;;;;;;;31.37;72.39;100661.25;5024351;28;66422;-38
2023/09/16 09:17:59;;;;;;;;;;;;;;;31.37;72.90;100661.25;5023541;28;69539;-39
2023/09/16 09:20:29;;;;;;;;;;;;;;;31.35;73.02;100655.22;5027892;28;65887;-39
2023/09/16 09:22:59;;;;;;;;;;;;;;;31.34;73.14;100653.53;5015619;28;69919;-40
2023/09/16 09:25:31;;;;;;;;;;;;;;;31.35;73.05;100656.03;5033874;28;65874;-38
2023/09/16 09:28:03;;;;;;;;;;;;;;;31.33;73.59;100660.84;5017037;28;69379;-40
2023/09/16 09:30:33;;;;;;;;;;;;;;;31.37;73.61;100658.53;5008306;28;66210;-39
2023/09/16 09:33:03;;;;;;;;;;;;;;;31.33;73.58;100668.16;5019263;28;70239;-39
2023/09/16 09:35:32;;;;;;;;;;;;;;;31.32;74.10;100663.81;5012101;28;66413;-38
2023/09/16 09:38:02;;;;;;;;;;;;;;;31.29;74.22;100672.41;5000696;28;70084;-39
2023/09/16 09:40:31;;;;;;;;;;;;;;;31.31;74.52;100670.28;5016608;28;66756;-39
2023/09/16 09:43:03;;;;;;;;;;;;;;;31.29;74.53;100672.41;5024723;28;70436;-39
2023/09/16 09:45:35;;;;;;;;;;;;;;;31.12;74.41;100678.44;5004293;28;65352;-39
2023/09/16 09:48:05;;;;;;;;;;;;;;;31.02;73.94;100672.72;5019214;28;70543;-40
2023/09/16 09:50:36;;;;;;;;;;;;;;;30.88;73.95;100677.44;5008782;28;66535;-39
2023/09/16 09:53:05;;;;;;;;;;;;;;;30.84;74.26;100675.41;5017504;28;70142;-46
2023/09/16 09:55:35;;;;;;;;;;;;;;;30.84;74.09;100675.41;4998887;28;65940;-41
2023/09/16 09:58:05;;;;;;;;;;;;;;;30.89;74.13;100670.16;5028139;28;69805;-39
2023/09/16 10:00:34;;;;;;;;;;;;;;;30.99;73.25;100667.75;5034871;28;66590;-39
2023/09/16 10:03:04;;;;;;;;;;;;;;;31.07;72.93;100663.91;5013128;28;70028;-40
2023/09/16 10:05:37;;;;;;;;;;;;;;;31.14;72.31;100660.03;5034701;28;65797;-38
2023/09/16 10:08:06;;;;;;;;;;;;;;;31.22;71.89;100671.66;5033102;28;70304;-39
2023/09/16 10:10:36;;;;;;;;;;;;;;;31.26;72.14;100667.41;5028932;28;66258;-40
2023/09/16 10:13:07;;;;;;;;;;;;;;;31.30;72.05;100674.88;5022310;28;69284;-41
2023/09/16 10:15:37;;;;;;;;;;;;;;;31.32;72.10;100674.66;5042913;28;66974;-39
2023/09/16 10:18:07;;;;;;;;;;;;;;;31.36;71.89;100673.16;5026455;28;69786;-39
2023/09/16 10:20:38;;;;;;;;;;;;;;;31.39;71.74;100678.94;5015736;28;65141;-40
2023/09/16 10:23:08;;;;;;;;;;;;;;;31.42;71.67;100676.84;5023080;28;70256;-40
2023/09/16 10:25:37;;;;;;;;;;;;;;;31.43;71.74;100673.91;5021547;28;65625;-39
2023/09/16 10:28:12;;;;;;;;;;;;;;;31.45;71.81;100671.78;5020654;28;70563;-40
2023/09/16 10:30:42;;;;;;;;;;;;;;;31.45;71.92;100674.47;5017534;28;65730;-39
2023/09/16 10:33:11;;;;;;;;;;;;;;;31.48;71.94;100679.47;5022909;28;70532;-52
2023/09/16 10:35:42;;;;;;;;;;;;;;;31.39;73.30;100683.53;5020454;28;65970;-40
2023/09/16 10:38:12;;;;;;;;;;;;;;;31.24;75.07;100681.22;5020348;28;70062;-40
2023/09/16 10:40:42;;;;;;;;;;;;;;;31.15;75.68;100680.69;5013277;28;66325;-40
2023/09/16 10:43:12;;;;;;;;;;;;;;;31.11;76.12;100682.19;5008966;28;69810;-39
2023/09/16 10:45:42;;;;;;;;;;;;;;;31.09;76.37;100673.47;5017258;28;65747;-40
2023/09/16 10:48:11;;;;;;;;;;;;;;;31.16;76.39;100684.22;5021169;28;69818;-39
2023/09/16 10:50:43;;;;;;;;;;;;;;;31.19;76.63;100682.94;5023573;28;67085;-40
2023/09/16 10:53:15;;;;;;;;;;;;;;;31.20;76.04;100690.00;5017846;28;68973;-41
2023/09/16 10:56:03;;;;;;;;;;;;;;;31.18;76.63;100690.25;5017422;28;66213;-41
2023/09/16 10:58:42;;;;;;;;;;;;;;;31.10;76.70;100685.97;5023590;28;70516;-40
2023/09/16 11:01:26;;;;;;;;;;;;;;;31.07;77.02;100691.84;5029740;28;66312;-40
2023/09/16 11:03:58;;;;;;;;;;;;;;;31.09;76.61;100688.88;5013242;28;69150;-39
2023/09/16 11:06:28;;;;;;;;;;;;;;;31.12;77.00;100693.84;5021307;28;66841;-39
2023/09/16 11:08:57;;;;;;;;;;;;;;;31.09;77.71;100694.28;5004346;28;70425;-41
2023/09/16 11:11:27;;;;;;;;;;;;;;;31.09;77.75;100695.16;5021964;28;66461;-40
2023/09/16 11:13:58;;;;;;;;;;;;;;;31.10;77.39;100691.38;5004295;28;70166;-40
2023/09/16 11:16:27;;;;;;;;;;;;;;;31.08;77.99;100693.47;5019907;28;66480;-39
2023/09/16 11:18:59;;;;;;;;;;;;;;;31.12;77.17;100691.13;5021139;28;69829;-39
2023/09/16 11:21:29;;;;;;;;;;;;;;;31.19;76.23;100696.50;5020268;28;65364;-38
2023/09/16 11:23:58;;;;;;;;;;;;;;;31.24;75.90;100696.63;5004485;28;69231;-39
2023/09/16 11:26:35;;;;;;;;;;;;;;;31.28;75.59;100698.66;5016151;28;66281;-39
2023/09/16 11:29:24;;;;;;;;;;;;;;;31.28;76.84;100697.81;5014280;28;69640;-41
2023/09/16 11:31:55;;;;;;;;;;;;;;;31.27;77.43;100707.03;5020411;28;67085;-40
2023/09/16 11:34:26;;;;;;;;;;;;;;;31.25;77.29;100707.25;5016090;28;69036;-40
2023/09/16 11:36:58;;;;;;;;;;;;;;;31.22;77.88;100698.75;5021830;28;66490;-41
2023/09/16 11:39:34;;;;;;;;;;;;;;;31.22;78.53;100704.16;5006640;28;69224;-39
2023/09/16 11:42:04;;;;;;;;;;;;;;;31.21;78.69;100711.47;5018219;28;65578;-39
2023/09/16 11:44:34;;;;;;;;;;;;;;;31.15;78.88;100710.50;5021791;28;70855;-40
2023/09/16 11:47:04;;;;;;;;;;;;;;;31.16;78.67;100714.03;5029598;28;66556;-39
2023/09/16 11:49:34;;;;;;;;;;;;;;;31.16;78.57;100708.59;5017353;28;70337;-39
2023/09/16 11:52:04;;;;;;;;;;;;;;;31.15;78.45;100712.38;5021390;28;66694;-39
2023/09/16 11:54:33;;;;;;;;;;;;;;;31.15;78.38;100721.34;5009041;28;71926;-40
2023/09/16 11:57:03;;;;;;;;;;;;;;;31.12;78.06;100727.22;5013222;28;66061;-39
2023/09/16 11:59:34;;;;;;;;;;;;;;;31.10;78.19;100718.47;5015313;28;70761;-39
2023/09/16 12:02:04;;;;;;;;;;;;;;;31.13;77.80;100728.84;5029573;28;66226;-39
2023/09/16 12:04:36;;;;;;;;;;;;;;;31.16;77.44;100717.56;5031612;28;70229;-37
2023/09/16 12:07:06;;;;;;;;;;;;;;;31.21;76.90;100724.19;5020515;28;66691;-39
2023/09/16 12:09:36;;;;;;;;;;;;;;;31.24;76.56;100737.28;5015243;28;69470;-37
2023/09/16 12:12:08;;;;;;;;;;;;;;;31.25;76.17;100742.47;5024547;28;65166;-38
2023/09/16 12:14:37;;;;;;;;;;;;;;;31.27;76.21;100744.97;5020978;28;70986;-38
2023/09/16 12:17:07;;;;;;;;;;;;;;;31.28;75.65;100747.44;5018576;28;65739;-39
2023/09/16 12:19:37;;;;;;;;;;;;;;;31.30;75.71;100753.47;5018533;28;69382;-39
2023/09/16 12:22:07;;;;;;;;;;;;;;;31.31;75.69;100746.16;5032115;28;65914;-39
2023/09/16 12:24:36;;;;;;;;;;;;;;;31.31;75.68;100746.16;5020815;28;70340;-38
2023/09/16 12:27:06;;;;;;;;;;;;;;;31.31;75.35;100738.84;5023935;28;66784;-39
2023/09/16 12:29:36;;;;;;;;;;;;;;;31.32;75.17;100750.53;5011705;28;69027;-38
2023/09/16 12:32:12;;;;;;;;;;;;;;;31.31;75.07;100752.41;5022130;28;65519;-38
2023/09/16 12:34:42;;;;;;;;;;;;;;;31.31;75.00;100762.41;5019498;28;69757;-40
2023/09/16 12:37:12;;;;;;;;;;;;;;;31.31;75.16;100765.13;5019491;28;66936;-37
2023/09/16 12:39:42;;;;;;;;;;;;;;;31.32;75.19;100774.94;5025562;28;70267;-38
2023/09/16 12:42:11;;;;;;;;;;;;;;;31.32;74.95;100774.94;5005950;28;66021;-38
2023/09/16 12:44:44;;;;;;;;;;;;;;;31.31;74.67;100781.38;5021531;28;70747;-38
2023/09/16 12:47:15;;;;;;;;;;;;;;;31.31;75.03;100789.50;5021178;28;67436;-37
2023/09/16 12:49:45;;;;;;;;;;;;;;;31.31;74.60;100792.22;5009440;28;70096;-39
2023/09/16 12:52:15;;;;;;;;;;;;;;;31.29;74.61;100781.63;5015169;28;66525;-40